Bookmark and Share
Track history (hours):
 

Hanseatic Scout

Last reported at 2014-Apr-20 02:33 UTC. Time now 2014-Apr-20 03:20 UTC.
Position N 55°21' E 017°30'.

Length 89 m; draft 4 m.

Type: Cargo ship. MMSI: 304867000.

NotesDate/timePositionNaut miles runAvg speedWind from/ knotsBaromVisibWave heightAir tempDewpointWater temp
2014-Apr-20 02:33N 55°21' E 017°30'1110.7
2014-Apr-20 01:33N 55°15' E 017°13'1111.0
2014-Apr-20 00:33N 55°10' E 016°57'6310.4
2014-Apr-19 18:31N 54°33' E 015°28'2010.1
2014-Apr-19 16:32N 54°21' E 015°01'1010.1
2014-Apr-19 15:32N 54°15' E 014°47'1010.2
2014-Apr-19 14:33N 54°09' E 014°34'1010.4
2014-Apr-19 13:33N 54°02' E 014°20'8 8.2
2014-Apr-19 12:34N 53°54' E 014°16'1 0.7
2014-Apr-19 11:32N 53°54' E 014°16'0 0.0
2014-Apr-19 10:32N 53°54' E 014°16'0 0.0
2014-Apr-19 09:32N 53°54' E 014°16'0 0.0
2014-Apr-19 08:32N 53°54' E 014°16'0 0.0
2014-Apr-19 07:32N 53°54' E 014°16'0 0.0
2014-Apr-19 06:31N 53°54' E 014°16'0 0.0
2014-Apr-19 05:31N 53°54' E 014°16'0 0.0
2014-Apr-19 04:31N 53°54' E 014°16'0 0.0
2014-Apr-19 03:32N 53°54' E 014°16'1 0.9
2014-Apr-19 02:33N 53°55' E 014°16'7 6.9
2014-Apr-19 01:33N 54°01' E 014°15'1010.0
2014-Apr-19 00:33N 54°11' E 014°12'9 9.3
2014-Apr-18 23:33N 54°18' E 014°01'10 9.9
2014-Apr-18 22:33N 54°27' E 013°53'1010.0
2014-Apr-18 21:33N 54°35' E 013°44'10 9.9
2014-Apr-18 20:33N 54°43' E 013°33'10 9.6
2014-Apr-18 19:33N 54°44' E 013°16'1010.0
2014-Apr-18 18:33N 54°42' E 012°59'10 9.5
2014-Apr-18 17:33N 54°41' E 012°43'10 9.9
2014-Apr-18 16:33N 54°35' E 012°29'10 9.7
2014-Apr-18 15:33N 54°29' E 012°15'9 8.6
2014-Apr-18 14:33N 54°25' E 012°03'9 9.3
2014-Apr-18 13:33N 54°25' E 011°47'9 9.0
2014-Apr-18 12:33N 54°29' E 011°33'10 9.8
2014-Apr-18 11:33N 54°33' E 011°18'11 9.8
2014-Apr-18 10:29N 54°35' E 010°60'52 7.5
2014-Apr-18 03:29N 54°15' E 009°37'6 6.3
2014-Apr-18 02:33N 54°11' E 009°29'7 7.4
2014-Apr-18 01:33N 54°06' E 009°20'6 5.5
2014-Apr-18 00:33N 54°01' E 009°18'8 7.7
2014-Apr-17 23:33N 53°54' E 009°10'3 3.0
2014-Apr-17 22:33N 53°53' E 009°06'3 3.1
2014-Apr-17 21:33N 53°51' E 009°01'7 7.2
2014-Apr-17 20:33N 53°50' E 008°49'7 6.6
2014-Apr-17 19:33N 53°55' E 008°41'7 7.0
2014-Apr-17 18:33N 53°58' E 008°30'8 8.3
2014-Apr-17 17:33N 53°60' E 008°16'7 7.4
2014-Apr-17 16:33N 53°59' E 008°04'7 6.9
2014-Apr-17 15:33N 53°57' E 007°52'7 6.6
2014-Apr-17 14:33N 53°56' E 007°42'9 8.7
2014-Apr-17 13:33N 53°53' E 007°27'1010.2
2014-Apr-17 12:33N 53°51' E 007°10'1110.6
2014-Apr-17 11:33N 53°49' E 006°53'2210.7
2014-Apr-17 09:30N 53°42' E 006°18'1111.4
2014-Apr-17 08:33N 53°39' E 006°00'1111.4
2014-Apr-17 07:33N 53°36' E 005°42'1211.6
2014-Apr-17 06:33N 53°32' E 005°23'1211.6
2014-Apr-17 05:33N 53°29' E 005°05'1111.5
2014-Apr-17 04:34N 53°24' E 004°47'1010.4
2014-Apr-17 03:33N 53°16' E 004°37'1010.3
2014-Apr-17 02:33N 53°07' E 004°28'10 9.9
2014-Apr-17 01:34N 52°58' E 004°20'9 9.3
2014-Apr-17 00:33N 52°50' E 004°13'9 9.3
2014-Apr-16 23:33N 52°43' E 004°03'9 9.0
2014-Apr-16 22:33N 52°36' E 003°53'9 8.7
2014-Apr-16 21:34N 52°30' E 003°44'9 8.6
2014-Apr-16 20:34N 52°24' E 003°34'9 8.6
2014-Apr-16 19:34N 52°16' E 003°29'10 9.7
2014-Apr-16 18:34N 52°06' E 003°26'1210.5
2014-Apr-16 17:23N 51°54' E 003°22'910.9
2014-Apr-16 16:33N 51°45' E 003°17'1010.2
2014-Apr-16 15:34N 51°36' E 003°23'1111.2
2014-Apr-16 14:33N 51°27' E 003°33'6 6.0
2014-Apr-16 13:33N 51°27' E 003°43'0 0.0
2014-Apr-16 12:30N 51°27' E 003°43'0 0.0
2014-Apr-16 11:30N 51°27' E 003°43'0 0.0
2014-Apr-16 10:33N 51°27' E 003°43'0 0.0
2014-Apr-16 09:30N 51°27' E 003°43'0 0.0
2014-Apr-16 08:33N 51°27' E 003°43'0 0.0
2014-Apr-16 07:30N 51°27' E 003°43'0 0.0
2014-Apr-16 06:30N 51°27' E 003°43'0 0.0
2014-Apr-16 05:33N 51°27' E 003°43'0 0.1
2014-Apr-16 04:33N 51°27' E 003°43'0 0.0
2014-Apr-16 03:33N 51°27' E 003°43'0 0.0
2014-Apr-16 02:33N 51°27' E 003°43'0 0.0
2014-Apr-16 01:28N 51°27' E 003°43'0 0.0
2014-Apr-16 00:31N 51°27' E 003°43'0 0.0
2014-Apr-15 23:31N 51°27' E 003°43'0 0.0
2014-Apr-15 22:28N 51°27' E 003°43'0 0.1
2014-Apr-15 21:31N 51°27' E 003°43'0 0.0
2014-Apr-15 20:28N 51°27' E 003°43'0 0.0
2014-Apr-15 19:31N 51°27' E 003°43'0 0.0
2014-Apr-15 18:28N 51°27' E 003°43'0 0.0
2014-Apr-15 17:31N 51°27' E 003°43'0 0.0
2014-Apr-15 16:31N 51°27' E 003°43'0 0.0
2014-Apr-15 15:31N 51°27' E 003°43'0 0.0
2014-Apr-15 14:28N 51°27' E 003°43'0 0.0
2014-Apr-15 12:32N 51°27' E 003°43'0 0.0
2014-Apr-15 11:32N 51°27' E 003°43'0 0.0
2014-Apr-15 10:32N 51°27' E 003°43'0 0.0
2014-Apr-15 09:32N 51°27' E 003°43'0 0.0
2014-Apr-15 08:32N 51°27' E 003°43'0 0.0
2014-Apr-15 07:32N 51°27' E 003°43'0 0.0
2014-Apr-15 06:32N 51°27' E 003°43'2 2.5
2014-Apr-15 05:34N 51°26' E 003°39'17 8.5
2014-Apr-15 03:33N 51°39' E 003°20'8 8.4
2014-Apr-15 02:32N 51°47' E 003°15'2 2.3
2014-Apr-15 01:32N 51°49' E 003°15'2 2.4
2014-Apr-15 00:31N 51°51' E 003°16'2 2.5
2014-Apr-14 23:32N 51°53' E 003°18'3 2.9
2014-Apr-14 22:34N 51°56' E 003°19'5 4.6
2014-Apr-14 21:33N 52°01' E 003°21'22 5.6
2014-Apr-14 17:33N 52°02' E 003°58'9 9.0
2014-Apr-14 16:33N 51°57' E 004°10'9 8.8
2014-Apr-14 15:33N 51°54' E 004°23'0 0.0
2014-Apr-14 13:33N 51°54' E 004°23'0 0.0
2014-Apr-14 11:33N 51°54' E 004°23'0 0.0
2014-Apr-14 10:33N 51°54' E 004°23'0 0.0
2014-Apr-14 09:33N 51°54' E 004°23'0 0.0
2014-Apr-14 08:33N 51°54' E 004°23'0 0.0
2014-Apr-14 07:33N 51°54' E 004°23'0 0.0
2014-Apr-13 22:33N 51°54' E 004°23'0 0.0
2014-Apr-13 21:27N 51°54' E 004°23'0 0.1
2014-Apr-13 20:34N 51°54' E 004°23'7 6.7
2014-Apr-13 19:33N 51°56' E 004°13'8 8.2
2014-Apr-13 18:34N 51°60' E 004°01'17 8.3
2014-Apr-13 16:33N 52°14' E 003°46'1010.3
2014-Apr-13 15:33N 52°24' E 003°49'73 9.9
2014-Apr-13 08:08N 53°30' E 004°43'610.1
2014-Apr-13 07:33N 53°32' E 004°52'10 9.5
2014-Apr-13 06:33N 53°35' E 005°07'9 9.0
2014-Apr-13 05:34N 53°38' E 005°21'9 9.0
2014-Apr-13 04:33N 53°41' E 005°35'9 9.1
2014-Apr-13 03:33N 53°44' E 005°50'1010.1
2014-Apr-13 02:32N 53°47' E 006°07'2510.9
2014-Apr-13 00:16N 53°54' E 006°47'710.7
2014-Apr-12 23:34N 53°56' E 006°59'1010.3
2014-Apr-12 22:34N 53°58' E 007°16'10 9.7
2014-Apr-12 21:33N 54°01' E 007°32'9 9.1
2014-Apr-12 20:34N 54°01' E 007°48'9 9.3
2014-Apr-12 19:34N 54°01' E 008°03'8 8.5
2014-Apr-12 18:34N 54°00' E 008°18'9 9.2
2014-Apr-12 17:34N 53°58' E 008°33'1212.4
2014-Apr-12 16:33N 53°50' E 008°49'1211.9
2014-Apr-12 15:33N 53°54' E 009°09'1 1.4
2014-Apr-12 14:33N 53°55' E 009°11'8 7.9
2014-Apr-12 13:33N 54°01' E 009°18'8 8.1
2014-Apr-12 12:33N 54°09' E 009°22'7 7.1
2014-Apr-12 11:33N 54°12' E 009°33'10 7.8
2014-Apr-12 10:17N 54°20' E 009°43'45 5.7
2014-Apr-12 02:30N 54°35' E 010°55'9 9.8
2014-Apr-12 01:33N 54°36' E 011°11'1010.1
2014-Apr-12 00:34N 54°31' E 011°27'1110.8
2014-Apr-11 23:34N 54°27' E 011°44'10 9.8
2014-Apr-11 22:33N 54°26' E 012°00'9 9.1
2014-Apr-11 21:34N 54°32' E 012°13'1310.1
2014-Apr-11 20:19N 54°41' E 012°27'1210.9
2014-Apr-11 19:14N 54°47' E 012°44'1010.5
2014-Apr-11 18:15N 54°51' E 013°01'810.8
2014-Apr-11 17:31N 54°54' E 013°15'1010.9
2014-Apr-11 16:33N 54°57' E 013°31'1111.0
2014-Apr-11 15:33N 55°01' E 013°50'1110.8
2014-Apr-11 14:33N 55°06' E 014°06'1110.7
2014-Apr-11 13:33N 55°14' E 014°18'1110.5
2014-Apr-11 12:33N 55°22' E 014°30'1010.2
2014-Apr-11 11:33N 55°28' E 014°44'1010.4
2014-Apr-11 10:33N 55°34' E 014°60'1110.7
2014-Apr-11 09:33N 55°40' E 015°16'1110.7
2014-Apr-11 08:33N 55°45' E 015°32'1310.9
2014-Apr-11 07:23N 55°51' E 015°52'910.8
2014-Apr-11 06:33N 55°55' E 016°06'1110.7
2014-Apr-11 05:33N 56°01' E 016°23'  

Dump ship's entire track history

sailing weather and tide predictions

Hanseatic Scout — V2BM2 — position and weather